| time (UTC) | temp F | wind direction | speed MPH | gust MPH | rain 1hr in | rain 24hr in | rain mn in | humidity % | barometer mb |
| 20260505180627 | 75 | 188 | 7.0 | 9.0 | 0.00 | 0.00 | 0.00 | 4 | 1014.6 |
| 20260505180327 | 75 | 210 | 2.0 | 5.0 | 0.00 | 0.00 | 0.00 | 4 | 1014.6 |
| 20260505175727 | 75 | 174 | 5.0 | 11.0 | 0.00 | 0.00 | 0.00 | 4 | 1014.7 |
| 20260505175427 | 75 | 180 | 4.0 | 8.0 | 0.00 | 0.00 | 0.00 | 5 | 1014.6 |
| 20260505174827 | 75 | 224 | 3.0 | 8.0 | 0.00 | 0.00 | 0.00 | 5 | 1014.8 |
| 20260505174527 | 75 | 241 | 4.0 | 7.0 | 0.00 | 0.00 | 0.00 | 4 | 1014.8 |
| 20260505174227 | 75 | 197 | 2.0 | 7.0 | 0.00 | 0.00 | 0.00 | 5 | 1014.9 |
| 20260505173927 | 75 | 0 | 0.0 | 2.0 | 0.00 | 0.00 | 0.00 | 5 | 1014.9 |
| 20260505173627 | 75 | 158 | 5.0 | 8.0 | 0.00 | 0.00 | 0.00 | 4 | 1015.0 |
| 20260505173326 | 75 | 204 | 6.0 | 9.0 | 0.00 | 0.00 | 0.00 | 4 | 1015.0 |
| 20260505173026 | 75 | 180 | 6.0 | 11.0 | 0.00 | 0.00 | 0.00 | 4 | 1015.2 |
| 20260505172726 | 74 | 193 | 7.0 | 11.0 | 0.00 | 0.00 | 0.00 | 4 | 1015.3 |
| 20260505172426 | 75 | 203 | 7.0 | 9.0 | 0.00 | 0.00 | 0.00 | 5 | 1015.1 |
| 20260505172127 | 75 | 182 | 7.0 | 10.0 | 0.00 | 0.00 | 0.00 | 5 | 1015.1 |
| 20260505171526 | 75 | 184 | 5.0 | 11.0 | 0.00 | 0.00 | 0.00 | 5 | 1015.1 |
| 20260505171226 | 76 | 236 | 5.0 | 10.0 | 0.00 | 0.00 | 0.00 | 4 | 1015.1 |
| 20260505170926 | 76 | 190 | 5.0 | 9.0 | 0.00 | 0.00 | 0.00 | 5 | 1015.1 |
| 20260505170626 | 75 | 0 | 1.0 | 3.0 | 0.00 | 0.00 | 0.00 | 5 | 1015.1 |
| 20260505170326 | 75 | 147 | 3.0 | 5.0 | 0.00 | 0.00 | 0.00 | 5 | 1015.1 |
| 20260505165726 | 75 | 232 | 4.0 | 7.0 | 0.00 | 0.00 | 0.00 | 5 | 1015.1 |
| 20260505165426 | 75 | 259 | 2.0 | 4.0 | 0.00 | 0.00 | 0.00 | 5 | 1015.1 |
| 20260505164826 | 75 | 219 | 6.0 | 16.0 | 0.00 | 0.00 | 0.00 | 5 | 1015.3 |
| 20260505164526 | 75 | 263 | 3.0 | 6.0 | 0.00 | 0.00 | 0.00 | 5 | 1015.3 |
| 20260505164226 | 74 | 210 | 9.0 | 12.0 | 0.00 | 0.00 | 0.00 | 5 | 1015.3 |
| 20260505163926 | 74 | 244 | 4.0 | 7.0 | 0.00 | 0.00 | 0.00 | 5 | 1015.3 |
| 20260505163626 | 75 | 147 | 6.0 | 10.0 | 0.00 | 0.00 | 0.00 | 4 | 1015.3 |
| 20260505163326 | 75 | 171 | 7.0 | 9.0 | 0.00 | 0.00 | 0.00 | 4 | 1015.3 |
| 20260505163026 | 75 | 220 | 3.0 | 6.0 | 0.00 | 0.00 | 0.00 | 5 | 1015.2 |
| 20260505162726 | 74 | 231 | 8.0 | 11.0 | 0.00 | 0.00 | 0.00 | 5 | 1015.2 |
| 20260505162426 | 75 | 202 | 7.0 | 12.0 | 0.00 | 0.00 | 0.00 | 4 | 1015.1 |
| 20260505162126 | 75 | 164 | 4.0 | 5.0 | 0.00 | 0.00 | 0.00 | 4 | 1015.1 |
| 20260505161526 | 74 | 201 | 7.0 | 12.0 | 0.00 | 0.00 | 0.00 | 4 | 1015.1 |
| 20260505161226 | 74 | 143 | 6.0 | 11.0 | 0.00 | 0.00 | 0.00 | 5 | 1015.2 |
| 20260505160926 | 73 | 222 | 9.0 | 12.0 | 0.00 | 0.00 | 0.00 | 4 | 1015.3 |
| 20260505160626 | 74 | 171 | 7.0 | 13.0 | 0.00 | 0.00 | 0.00 | 5 | 1015.1 |
| 20260505160326 | 74 | 198 | 7.0 | 13.0 | 0.00 | 0.00 | 0.00 | 5 | 1015.1 |
| 20260505153326 | 72 | 171 | 7.0 | 11.0 | 0.00 | 0.00 | 0.00 | 5 | 1015.6 |
| 20260505153026 | 73 | 243 | 4.0 | 10.0 | 0.00 | 0.00 | 0.00 | 5 | 1015.7 |
| 20260505152726 | 73 | 197 | 5.0 | 8.0 | 0.00 | 0.00 | 0.00 | 5 | 1015.7 |
| 20260505152426 | 72 | 230 | 4.0 | 9.0 | 0.00 | 0.00 | 0.00 | 5 | 1015.7 |
| 20260505152126 | 72 | 191 | 10.0 | 16.0 | 0.00 | 0.00 | 0.00 | 5 | 1015.8 |
| 20260505151526 | 73 | 213 | 4.0 | 6.0 | 0.00 | 0.00 | 0.00 | 5 | 1015.6 |
| 20260505151226 | 73 | 147 | 8.0 | 12.0 | 0.00 | 0.00 | 0.00 | 5 | 1015.4 |
| 20260505150926 | 73 | 189 | 4.0 | 6.0 | 0.00 | 0.00 | 0.00 | 5 | 1015.5 |
| 20260505150626 | 73 | 234 | 7.0 | 12.0 | 0.00 | 0.00 | 0.00 | 5 | 1015.5 |
| 20260505150326 | 73 | 198 | 9.0 | 12.0 | 0.00 | 0.00 | 0.00 | 5 | 1015.5 |
| 20260505140627 | 70 | 0 | 0.0 | 2.0 | 0.00 | 0.00 | 0.00 | 6 | 1015.4 |
| 20260505140327 | 70 | 270 | 1.0 | 2.0 | 0.00 | 0.00 | 0.00 | 7 | 1015.4 |
| 20260505124826 | 60 | 0 | 0.0 | 0.0 | 0.00 | 0.00 | 0.00 | 8 | 1015.8 |
| 20260505124526 | 59 | 0 | 0.0 | 0.0 | 0.00 | 0.00 | 0.00 | 8 | 1015.9 |
| 20260505124226 | 57 | 0 | 0.0 | 0.0 | 0.00 | 0.00 | 0.00 | 8 | 1016.0 |
| 20260505123926 | 56 | 0 | 0.0 | 0.0 | 0.00 | 0.00 | 0.00 | 9 | 1016.1 |
| 20260505123626 | 54 | 0 | 0.0 | 0.0 | 0.00 | 0.00 | 0.00 | 9 | 1016.2 |
| 20260505123326 | 54 | 0 | 0.0 | 0.0 | 0.00 | 0.00 | 0.00 | 9 | 1016.3 |
| 20260505123026 | 53 | 0 | 0.0 | 0.0 | 0.00 | 0.00 | 0.00 | 9 | 1016.3 |
| 20260505122726 | 53 | 0 | 0.0 | 0.0 | 0.00 | 0.00 | 0.00 | 9 | 1016.3 |
| 20260505122426 | 53 | 0 | 0.0 | 0.0 | 0.00 | 0.00 | 0.00 | 9 | 1016.2 |
| 20260505122126 | 53 | 0 | 0.0 | 0.0 | 0.00 | 0.00 | 0.00 | 9 | 1016.2 |
| 20260505121526 | 53 | 0 | 0.0 | 0.0 | 0.00 | 0.00 | 0.00 | 9 | 1016.0 |
| 20260505121226 | 52 | 0 | 0.0 | 0.0 | 0.00 | 0.00 | 0.00 | 9 | 1016.1 |
| 20260505120926 | 52 | 0 | 0.0 | 0.0 | 0.00 | 0.00 | 0.00 | 9 | 1016.1 |
| 20260505120626 | 52 | 0 | 0.0 | 0.0 | 0.00 | 0.00 | 0.00 | 9 | 1016.2 |
| 20260505120326 | 52 | 0 | 0.0 | 0.0 | 0.00 | 0.00 | 0.00 | 9 | 1016.2 |
| 20260505115726 | 51 | 0 | 0.0 | 0.0 | 0.00 | 0.00 | 0.00 | 9 | 1016.1 |
| 20260505115426 | 51 | 0 | 0.0 | 0.0 | 0.00 | 0.00 | 0.00 | 9 | 1016.2 |
| 20260505114826 | 51 | 0 | 0.0 | 0.0 | 0.00 | 0.00 | 0.00 | 9 | 1016.2 |
| 20260505114526 | 51 | 0 | 0.0 | 0.0 | 0.00 | 0.00 | 0.00 | 9 | 1016.1 |
| 20260505114226 | 51 | 0 | 0.0 | 0.0 | 0.00 | 0.00 | 0.00 | 9 | 1016.1 |
| 20260505113926 | 51 | 0 | 0.0 | 0.0 | 0.00 | 0.00 | 0.00 | 9 | 1016.0 |
| 20260505113626 | 51 | 0 | 0.0 | 0.0 | 0.00 | 0.00 | 0.00 | 9 | 1015.8 |
| 20260505113326 | 51 | 0 | 0.0 | 0.0 | 0.00 | 0.00 | 0.00 | 9 | 1015.8 |
| 20260505113026 | 51 | 247 | 1.0 | 4.0 | 0.00 | 0.00 | 0.00 | 9 | 1015.7 |
| 20260505112726 | 51 | 202 | 0.0 | 2.0 | 0.00 | 0.00 | 0.00 | 9 | 1015.7 |
| 20260505112426 | 51 | 0 | 0.0 | 2.0 | 0.00 | 0.00 | 0.00 | 9 | 1015.6 |
| 20260505112126 | 51 | 0 | 0.0 | 0.0 | 0.00 | 0.00 | 0.00 | 9 | 1015.6 |
| 20260505111526 | 51 | 0 | 0.0 | 0.0 | 0.00 | 0.00 | 0.00 | 9 | 1015.7 |
| 20260505111226 | 51 | 0 | 0.0 | 0.0 | 0.00 | 0.00 | 0.00 | 9 | 1015.7 |
| 20260505110926 | 51 | 0 | 0.0 | 0.0 | 0.00 | 0.00 | 0.00 | 9 | 1015.7 |
| 20260505110626 | 51 | 202 | 1.0 | 3.0 | 0.00 | 0.00 | 0.00 | 8 | 1015.7 |
| 20260505110326 | 52 | 0 | 0.0 | 0.0 | 0.00 | 0.00 | 0.00 | 8 | 1015.7 |
| 20260505102126 | 51 | 0 | 0.0 | 0.0 | 0.00 | 0.00 | 0.00 | 8 | 1015.6 |
| 20260505101526 | 51 | 215 | 2.0 | 4.0 | 0.00 | 0.00 | 0.00 | 9 | 1015.6 |
| 20260505101226 | 50 | 0 | 0.0 | 0.0 | 0.00 | 0.00 | 0.00 | 9 | 1015.7 |
| 20260505100926 | 50 | 0 | 0.0 | 0.0 | 0.00 | 0.00 | 0.00 | 9 | 1015.7 |
| 20260505100626 | 50 | 0 | 0.0 | 0.0 | 0.00 | 0.00 | 0.00 | 9 | 1015.8 |
| 20260505100326 | 50 | 0 | 0.0 | 0.0 | 0.00 | 0.00 | 0.00 | 9 | 1015.8 |
| 20260505095727 | 50 | 0 | 0.0 | 0.0 | 0.00 | 0.00 | 0.00 | 9 | 1015.9 |
| 20260505095427 | 50 | 0 | 0.0 | 0.0 | 0.00 | 0.00 | 0.00 | 9 | 1015.8 |
| 20260505094827 | 50 | 0 | 0.0 | 0.0 | 0.00 | 0.00 | 0.00 | 9 | 1015.8 |
| 20260505094527 | 50 | 0 | 0.0 | 0.0 | 0.00 | 0.00 | 0.00 | 9 | 1015.9 |
| 20260505094227 | 50 | 0 | 0.0 | 0.0 | 0.00 | 0.00 | 0.00 | 9 | 1015.8 |
| 20260505093927 | 50 | 0 | 0.0 | 0.0 | 0.00 | 0.00 | 0.00 | 9 | 1015.8 |
| 20260505093627 | 49 | 0 | 0.0 | 0.0 | 0.00 | 0.00 | 0.00 | 9 | 1015.9 |
| 20260505093327 | 49 | 0 | 0.0 | 0.0 | 0.00 | 0.00 | 0.00 | 9 | 1015.9 |
| 20260505093027 | 48 | 0 | 0.0 | 0.0 | 0.00 | 0.00 | 0.00 | 9 | 1015.9 |
| 20260505092727 | 48 | 0 | 0.0 | 0.0 | 0.00 | 0.00 | 0.00 | 9 | 1016.0 |
| 20260505092427 | 48 | 0 | 0.0 | 0.0 | 0.00 | 0.00 | 0.00 | 9 | 1015.9 |
| 20260505092127 | 48 | 0 | 0.0 | 0.0 | 0.00 | 0.00 | 0.00 | 9 | 1015.9 |
| 20260505091527 | 48 | 0 | 0.0 | 0.0 | 0.00 | 0.00 | 0.00 | 9 | 1016.1 |
| 20260505091227 | 48 | 0 | 0.0 | 0.0 | 0.00 | 0.00 | 0.00 | 9 | 1016.1 |
| 20260505090927 | 49 | 0 | 0.0 | 0.0 | 0.00 | 0.00 | 0.00 | 9 | 1016.1 |
| 20260505090627 | 49 | 0 | 0.0 | 0.0 | 0.00 | 0.00 | 0.00 | 9 | 1016.2 |
| 20260505090327 | 48 | 0 | 0.0 | 0.0 | 0.00 | 0.00 | 0.00 | 9 | 1016.2 |
| 20260505085727 | 49 | 0 | 0.0 | 0.0 | 0.00 | 0.00 | 0.00 | 9 | 1016.2 |
| 20260505085426 | 49 | 0 | 0.0 | 0.0 | 0.00 | 0.00 | 0.00 | 9 | 1016.1 |
| 20260505084826 | 49 | 0 | 0.0 | 0.0 | 0.00 | 0.00 | 0.00 | 9 | 1016.1 |
| 20260505084526 | 49 | 0 | 0.0 | 0.0 | 0.00 | 0.00 | 0.00 | 9 | 1016.1 |
| 20260505084226 | 49 | 0 | 0.0 | 0.0 | 0.00 | 0.00 | 0.00 | 9 | 1016.2 |
| 20260505083926 | 49 | 0 | 0.0 | 0.0 | 0.00 | 0.00 | 0.00 | 9 | 1016.2 |
| 20260505083626 | 49 | 0 | 0.0 | 0.0 | 0.00 | 0.00 | 0.00 | 9 | 1016.3 |
| 20260505083326 | 49 | 0 | 0.0 | 0.0 | 0.00 | 0.00 | 0.00 | 9 | 1016.3 |
| 20260505083026 | 50 | 0 | 0.0 | 0.0 | 0.00 | 0.00 | 0.00 | 9 | 1016.2 |
| 20260505082726 | 50 | 0 | 0.0 | 0.0 | 0.00 | 0.00 | 0.00 | 9 | 1016.2 |
| 20260505082426 | 50 | 0 | 0.0 | 0.0 | 0.00 | 0.00 | 0.00 | 9 | 1016.1 |
| 20260505082126 | 50 | 0 | 0.0 | 0.0 | 0.00 | 0.00 | 0.00 | 9 | 1016.0 |
| 20260505081526 | 50 | 0 | 0.0 | 0.0 | 0.00 | 0.00 | 0.00 | 9 | 1016.0 |
| 20260505081226 | 50 | 0 | 0.0 | 0.0 | 0.00 | 0.00 | 0.00 | 9 | 1016.0 |
| 20260505080926 | 50 | 0 | 0.0 | 0.0 | 0.00 | 0.00 | 0.00 | 9 | 1016.0 |
| 20260505080626 | 50 | 0 | 0.0 | 0.0 | 0.00 | 0.00 | 0.00 | 9 | 1015.9 |
| 20260505080326 | 50 | 0 | 0.0 | 0.0 | 0.00 | 0.00 | 0.00 | 9 | 1015.9 |
| 20260505075726 | 50 | 0 | 0.0 | 0.0 | 0.00 | 0.00 | 0.00 | 9 | 1015.9 |
| 20260505075426 | 50 | 0 | 0.0 | 0.0 | 0.00 | 0.00 | 0.00 | 9 | 1015.9 |
| 20260505074826 | 49 | 0 | 0.0 | 0.0 | 0.00 | 0.00 | 0.00 | 9 | 1016.0 |
| 20260505074526 | 49 | 0 | 0.0 | 0.0 | 0.00 | 0.00 | 0.00 | 9 | 1016.0 |
| 20260505074226 | 49 | 0 | 0.0 | 0.0 | 0.00 | 0.00 | 0.00 | 9 | 1016.0 |
| 20260505073926 | 49 | 0 | 0.0 | 0.0 | 0.00 | 0.00 | 0.00 | 9 | 1016.0 |
| 20260505073626 | 49 | 0 | 0.0 | 0.0 | 0.00 | 0.00 | 0.00 | 9 | 1016.0 |
| 20260505073326 | 49 | 0 | 0.0 | 0.0 | 0.00 | 0.00 | 0.00 | 9 | 1016.0 |
| 20260505073026 | 49 | 0 | 0.0 | 0.0 | 0.00 | 0.00 | 0.00 | 9 | 1016.0 |
| 20260505072726 | 49 | 0 | 0.0 | 0.0 | 0.00 | 0.00 | 0.00 | 9 | 1016.0 |
| 20260505072426 | 49 | 0 | 0.0 | 0.0 | 0.00 | 0.00 | 0.00 | 9 | 1016.1 |
| 20260505072126 | 49 | 0 | 0.0 | 0.0 | 0.00 | 0.00 | 0.00 | 9 | 1016.0 |
| 20260505071526 | 49 | 0 | 0.0 | 0.0 | 0.00 | 0.00 | 0.00 | 9 | 1016.1 |
| 20260505071226 | 49 | 0 | 0.0 | 0.0 | 0.00 | 0.00 | 0.00 | 9 | 1016.1 |
| 20260505070926 | 49 | 0 | 0.0 | 0.0 | 0.00 | 0.00 | 0.00 | 9 | 1016.1 |
| 20260505070626 | 49 | 0 | 0.0 | 0.0 | 0.00 | 0.00 | 0.00 | 9 | 1016.1 |
| 20260505070326 | 49 | 0 | 0.0 | 0.0 | 0.00 | 0.00 | 0.00 | 9 | 1016.1 |
| 20260505065726 | 49 | 0 | 0.0 | 0.0 | 0.00 | 0.00 | 0.00 | 9 | 1016.0 |
| 20260505065426 | 49 | 0 | 0.0 | 0.0 | 0.00 | 0.00 | 0.00 | 9 | 1016.0 |
| 20260505064826 | 49 | 0 | 0.0 | 0.0 | 0.00 | 0.00 | 0.00 | 9 | 1016.0 |
| 20260505064526 | 49 | 0 | 0.0 | 0.0 | 0.00 | 0.00 | 0.00 | 9 | 1016.0 |
| 20260505064226 | 49 | 0 | 0.0 | 0.0 | 0.00 | 0.00 | 0.00 | 9 | 1016.0 |
| 20260505063926 | 49 | 0 | 0.0 | 0.0 | 0.00 | 0.00 | 0.00 | 9 | 1016.1 |
| 20260505063626 | 49 | 0 | 0.0 | 0.0 | 0.00 | 0.00 | 0.00 | 9 | 1016.1 |
| 20260505063326 | 49 | 0 | 0.0 | 0.0 | 0.00 | 0.00 | 0.00 | 9 | 1016.1 |
| 20260505063026 | 49 | 0 | 0.0 | 0.0 | 0.00 | 0.00 | 0.00 | 9 | 1016.1 |
| 20260505062726 | 49 | 0 | 0.0 | 0.0 | 0.00 | 0.00 | 0.00 | 9 | 1016.2 |
| 20260505062426 | 49 | 0 | 0.0 | 0.0 | 0.00 | 0.00 | 0.00 | 9 | 1016.2 |
| 20260505062126 | 49 | 0 | 0.0 | 0.0 | 0.00 | 0.00 | 0.00 | 9 | 1016.3 |
| 20260505061526 | 49 | 0 | 0.0 | 0.0 | 0.00 | 0.00 | 0.00 | 9 | 1016.2 |
| 20260505061226 | 49 | 0 | 0.0 | 0.0 | 0.00 | 0.00 | 0.00 | 9 | 1016.2 |
| 20260505060926 | 49 | 0 | 0.0 | 0.0 | 0.00 | 0.00 | 0.00 | 9 | 1016.2 |
| 20260505060626 | 49 | 0 | 0.0 | 0.0 | 0.00 | 0.00 | 0.00 | 9 | 1016.2 |
| 20260505060326 | 49 | 0 | 0.0 | 0.0 | 0.00 | 0.00 | 0.00 | 9 | 1016.2 |
| 20260505055726 | 49 | 0 | 0.0 | 0.0 | 0.00 | 0.00 | 0.00 | 9 | 1016.3 |
| 20260505055426 | 49 | 0 | 0.0 | 0.0 | 0.00 | 0.00 | 0.00 | 9 | 1016.3 |
| 20260505054826 | 49 | 0 | 0.0 | 0.0 | 0.00 | 0.00 | 0.00 | 9 | 1016.3 |
| 20260505054526 | 49 | 0 | 0.0 | 0.0 | 0.00 | 0.00 | 0.00 | 9 | 1016.2 |
| 20260505054227 | 49 | 0 | 0.0 | 0.0 | 0.00 | 0.00 | 0.00 | 9 | 1016.3 |
| 20260505053927 | 49 | 0 | 0.0 | 0.0 | 0.00 | 0.00 | 0.00 | 9 | 1016.3 |
| 20260505053627 | 50 | 0 | 0.0 | 0.0 | 0.00 | 0.00 | 0.00 | 9 | 1016.2 |
| 20260505053327 | 50 | 0 | 0.0 | 0.0 | 0.00 | 0.00 | 0.00 | 9 | 1016.3 |
| 20260505053027 | 50 | 0 | 0.0 | 0.0 | 0.00 | 0.00 | 0.00 | 9 | 1016.3 |
| 20260505052727 | 50 | 0 | 0.0 | 0.0 | 0.00 | 0.00 | 0.00 | 9 | 1016.3 |
| 20260505052427 | 50 | 0 | 0.0 | 0.0 | 0.00 | 0.00 | 0.00 | 9 | 1016.3 |
| 20260505052127 | 50 | 0 | 0.0 | 0.0 | 0.00 | 0.00 | 0.00 | 9 | 1016.3 |
| 20260505051527 | 50 | 0 | 0.0 | 0.0 | 0.00 | 0.00 | 0.00 | 9 | 1016.3 |
| 20260505051227 | 50 | 0 | 0.0 | 0.0 | 0.00 | 0.00 | 0.00 | 9 | 1016.3 |
| 20260505050927 | 50 | 0 | 0.0 | 0.0 | 0.00 | 0.00 | 0.00 | 9 | 1016.3 |
| 20260505050627 | 50 | 0 | 0.0 | 0.0 | 0.00 | 0.00 | 0.00 | 9 | 1016.3 |
| 20260505050327 | 50 | 0 | 0.0 | 0.0 | 0.00 | 0.00 | 0.00 | 9 | 1016.3 |
| 20260505041526 | 52 | 0 | 0.0 | 0.0 | 0.00 | 0.00 | 0.00 | 8 | 1016.1 |
| 20260505041226 | 52 | 0 | 0.0 | 0.0 | 0.00 | 0.00 | 0.00 | 8 | 1016.0 |
| 20260505040926 | 52 | 0 | 0.0 | 0.0 | 0.00 | 0.00 | 0.00 | 8 | 1016.0 |
| 20260505040626 | 52 | 0 | 0.0 | 0.0 | 0.00 | 0.00 | 0.00 | 8 | 1016.0 |
| 20260505040326 | 52 | 0 | 0.0 | 0.0 | 0.00 | 0.00 | 0.00 | 8 | 1016.1 |
| 20260505035726 | 53 | 0 | 0.0 | 0.0 | 0.00 | 0.00 | 0.00 | 8 | 1016.0 |
| 20260505035426 | 53 | 0 | 0.0 | 0.0 | 0.00 | 0.00 | 0.00 | 8 | 1016.1 |
| 20260505034826 | 53 | 0 | 0.0 | 0.0 | 0.00 | 0.00 | 0.00 | 8 | 1016.0 |
| 20260505034526 | 53 | 0 | 0.0 | 0.0 | 0.00 | 0.00 | 0.00 | 8 | 1016.0 |
| 20260505034226 | 53 | 0 | 0.0 | 0.0 | 0.00 | 0.00 | 0.00 | 8 | 1016.1 |
| 20260505033926 | 53 | 0 | 0.0 | 0.0 | 0.00 | 0.00 | 0.00 | 8 | 1016.1 |
| 20260505033626 | 53 | 0 | 0.0 | 0.0 | 0.00 | 0.00 | 0.00 | 8 | 1016.1 |
| 20260505033326 | 54 | 0 | 0.0 | 0.0 | 0.00 | 0.00 | 0.00 | 8 | 1016.1 |
| 20260505033026 | 54 | 0 | 0.0 | 0.0 | 0.00 | 0.00 | 0.00 | 8 | 1016.1 |
| 20260505032726 | 54 | 0 | 0.0 | 0.0 | 0.00 | 0.00 | 0.00 | 8 | 1016.1 |
| 20260505032426 | 54 | 0 | 0.0 | 0.0 | 0.00 | 0.00 | 0.00 | 8 | 1016.2 |
| 20260505032126 | 54 | 0 | 0.0 | 0.0 | 0.00 | 0.00 | 0.00 | 8 | 1016.1 |
| 20260505031526 | 55 | 0 | 0.0 | 0.0 | 0.00 | 0.00 | 0.00 | 8 | 1016.1 |
| 20260505031226 | 54 | 0 | 0.0 | 0.0 | 0.00 | 0.00 | 0.00 | 8 | 1016.1 |
| 20260505030926 | 54 | 0 | 0.0 | 0.0 | 0.00 | 0.00 | 0.00 | 8 | 1016.1 |
| 20260505030626 | 54 | 0 | 0.0 | 0.0 | 0.00 | 0.00 | 0.00 | 8 | 1016.1 |
| 20260505030326 | 55 | 0 | 0.0 | 0.0 | 0.00 | 0.00 | 0.00 | 8 | 1016.0 |
| 20260505025726 | 55 | 0 | 0.0 | 0.0 | 0.00 | 0.00 | 0.00 | 8 | 1016.1 |
| 20260505025426 | 55 | 0 | 0.0 | 0.0 | 0.00 | 0.00 | 0.00 | 8 | 1016.0 |
| 20260505024826 | 56 | 0 | 0.0 | 0.0 | 0.00 | 0.00 | 0.00 | 8 | 1016.0 |
| 20260505024526 | 56 | 0 | 0.0 | 0.0 | 0.00 | 0.00 | 0.00 | 8 | 1016.0 |
| 20260505024226 | 56 | 0 | 0.0 | 0.0 | 0.00 | 0.00 | 0.00 | 8 | 1016.1 |
| 20260505023926 | 56 | 0 | 0.0 | 0.0 | 0.00 | 0.00 | 0.00 | 8 | 1016.1 |
| 20260505023626 | 56 | 0 | 0.0 | 0.0 | 0.00 | 0.00 | 0.00 | 8 | 1016.0 |
| 20260505023326 | 56 | 0 | 0.0 | 0.0 | 0.00 | 0.00 | 0.00 | 8 | 1015.9 |
| 20260505023026 | 56 | 0 | 0.0 | 0.0 | 0.00 | 0.00 | 0.00 | 8 | 1015.9 |
| 20260505022726 | 56 | 0 | 0.0 | 0.0 | 0.00 | 0.00 | 0.00 | 8 | 1015.9 |
| 20260505022426 | 56 | 0 | 0.0 | 0.0 | 0.00 | 0.00 | 0.00 | 8 | 1015.9 |
| 20260505022126 | 56 | 0 | 0.0 | 0.0 | 0.00 | 0.00 | 0.00 | 8 | 1015.8 |
| 20260505021526 | 57 | 0 | 0.0 | 0.0 | 0.00 | 0.00 | 0.00 | 8 | 1015.7 |
| 20260505021226 | 57 | 0 | 0.0 | 0.0 | 0.00 | 0.00 | 0.00 | 8 | 1015.6 |
| 20260505020926 | 57 | 0 | 0.0 | 0.0 | 0.00 | 0.00 | 0.00 | 8 | 1015.5 |
| 20260505020626 | 58 | 0 | 0.0 | 0.0 | 0.00 | 0.00 | 0.00 | 8 | 1015.5 |
| 20260505020326 | 58 | 0 | 0.0 | 0.0 | 0.00 | 0.00 | 0.00 | 8 | 1015.5 |
| 20260505015726 | 58 | 0 | 0.0 | 0.0 | 0.00 | 0.00 | 0.00 | 8 | 1015.4 |
| 20260505015426 | 59 | 0 | 0.0 | 0.0 | 0.00 | 0.00 | 0.00 | 7 | 1015.4 |
| 20260505014826 | 59 | 0 | 0.0 | 0.0 | 0.00 | 0.00 | 0.00 | 7 | 1015.2 |
| 20260505014526 | 59 | 0 | 0.0 | 0.0 | 0.00 | 0.00 | 0.00 | 7 | 1015.3 |
| 20260505014226 | 60 | 0 | 0.0 | 0.0 | 0.00 | 0.00 | 0.00 | 7 | 1015.1 |
| 20260505013926 | 60 | 0 | 0.0 | 0.0 | 0.00 | 0.00 | 0.00 | 7 | 1015.1 |
| 20260505013626 | 60 | 0 | 0.0 | 0.0 | 0.00 | 0.00 | 0.00 | 7 | 1014.9 |
| 20260505013326 | 61 | 0 | 0.0 | 0.0 | 0.00 | 0.00 | 0.00 | 7 | 1014.9 |
| 20260505013026 | 61 | 0 | 0.0 | 0.0 | 0.00 | 0.00 | 0.00 | 7 | 1014.9 |
| 20260505012726 | 60 | 0 | 0.0 | 0.0 | 0.00 | 0.00 | 0.00 | 7 | 1014.9 |
| 20260505012426 | 61 | 0 | 0.0 | 0.0 | 0.00 | 0.00 | 0.00 | 7 | 1014.9 |
| 20260505012126 | 61 | 0 | 0.0 | 0.0 | 0.00 | 0.00 | 0.00 | 7 | 1014.8 |
| 20260505011527 | 62 | 0 | 0.0 | 0.0 | 0.00 | 0.00 | 0.00 | 7 | 1014.7 |
| 20260505011227 | 62 | 0 | 0.0 | 0.0 | 0.00 | 0.00 | 0.00 | 7 | 1014.7 |
| 20260505010927 | 63 | 0 | 0.0 | 0.0 | 0.00 | 0.00 | 0.00 | 7 | 1014.7 |
| 20260505010627 | 63 | 0 | 0.0 | 0.0 | 0.00 | 0.00 | 0.00 | 6 | 1014.6 |
| 20260505010327 | 64 | 0 | 0.0 | 0.0 | 0.00 | 0.00 | 0.00 | 6 | 1014.5 |
| 20260505005727 | 65 | 0 | 0.0 | 0.0 | 0.00 | 0.00 | 0.00 | 6 | 1014.3 |
| 20260505005427 | 66 | 0 | 0.0 | 0.0 | 0.00 | 0.00 | 0.00 | 6 | 1014.3 |
| 20260505004827 | 68 | 0 | 0.0 | 0.0 | 0.00 | 0.00 | 0.00 | 6 | 1014.1 |
| 20260505003327 | 72 | 0 | 0.0 | 0.0 | 0.00 | 0.00 | 0.00 | 5 | 1013.5 |
| 20260505003027 | 74 | 0 | 0.0 | 0.0 | 0.00 | 0.00 | 0.00 | 5 | 1013.3 |
| 20260505002727 | 74 | 0 | 0.0 | 0.0 | 0.00 | 0.00 | 0.00 | 5 | 1013.3 |
| 20260505001526 | 76 | 0 | 0.0 | 0.0 | 0.00 | 0.00 | 0.00 | 4 | 1013.3 |
| 20260505001226 | 77 | 0 | 0.0 | 0.0 | 0.00 | 0.00 | 0.00 | 4 | 1013.2 |
| 20260505000926 | 76 | 0 | 0.0 | 0.0 | 0.00 | 0.00 | 0.00 | 4 | 1013.2 |
| 20260505000627 | 76 | 0 | 0.0 | 0.0 | 0.00 | 0.00 | 0.00 | 4 | 1013.2 |
| 20260505000326 | 76 | 0 | 0.0 | 0.0 | 0.00 | 0.00 | 0.00 | 4 | 1013.2 |
| 20260504235727 | 76 | 0 | 0.0 | 0.0 | 0.00 | 0.00 | 0.00 | 4 | 1013.2 |
| 20260504235426 | 76 | 225 | 0.0 | 2.0 | 0.00 | 0.00 | 0.00 | 4 | 1013.2 |
| 20260504234826 | 77 | 225 | 1.0 | 4.0 | 0.00 | 0.00 | 0.00 | 4 | 1013.2 |
| 20260504234526 | 77 | 0 | 0.0 | 0.0 | 0.00 | 0.00 | 0.00 | 4 | 1013.1 |
| 20260504234226 | 78 | 0 | 0.0 | 0.0 | 0.00 | 0.00 | 0.00 | 3 | 1013.0 |
| 20260504233926 | 78 | 225 | 0.0 | 1.0 | 0.00 | 0.00 | 0.00 | 3 | 1013.1 |
| 20260504233626 | 78 | 225 | 2.0 | 4.0 | 0.00 | 0.00 | 0.00 | 3 | 1013.0 |
| 20260504233326 | 78 | 0 | 0.0 | 0.0 | 0.00 | 0.00 | 0.00 | 3 | 1013.1 |
| 20260504233026 | 77 | 202 | 3.0 | 5.0 | 0.00 | 0.00 | 0.00 | 3 | 1013.1 |
| 20260504232726 | 78 | 225 | 4.0 | 6.0 | 0.00 | 0.00 | 0.00 | 3 | 1013.0 |
| 20260504232426 | 79 | 235 | 2.0 | 4.0 | 0.00 | 0.00 | 0.00 | 3 | 1013.0 |
| 20260504232126 | 79 | 230 | 1.0 | 3.0 | 0.00 | 0.00 | 0.00 | 3 | 1012.9 |
| 20260504231526 | 79 | 0 | 0.0 | 0.0 | 0.00 | 0.00 | 0.00 | 3 | 1012.9 |
| 20260504231226 | 80 | 0 | 0.0 | 2.0 | 0.00 | 0.00 | 0.00 | 3 | 1012.9 |
| 20260504230926 | 79 | 225 | 0.0 | 2.0 | 0.00 | 0.00 | 0.00 | 3 | 1012.9 |
| 20260504230626 | 79 | 214 | 2.0 | 4.0 | 0.00 | 0.00 | 0.00 | 3 | 1012.9 |
| 20260504230326 | 78 | 247 | 1.0 | 3.0 | 0.00 | 0.00 | 0.00 | 3 | 1012.9 |
| 20260504225726 | 80 | 0 | 0.0 | 3.0 | 0.00 | 0.00 | 0.00 | 3 | 1012.9 |
| 20260504225426 | 79 | 247 | 1.0 | 3.0 | 0.00 | 0.00 | 0.00 | 3 | 1013.0 |
| 20260504224826 | 79 | 219 | 3.0 | 5.0 | 0.00 | 0.00 | 0.00 | 3 | 1013.1 |
| 20260504224526 | 79 | 230 | 3.0 | 5.0 | 0.00 | 0.00 | 0.00 | 3 | 1013.1 |
| 20260504224226 | 79 | 228 | 3.0 | 4.0 | 0.00 | 0.00 | 0.00 | 3 | 1013.0 |
| 20260504223926 | 79 | 158 | 2.0 | 5.0 | 0.00 | 0.00 | 0.00 | 3 | 1013.0 |
| 20260504223626 | 79 | 225 | 1.0 | 3.0 | 0.00 | 0.00 | 0.00 | 3 | 1013.0 |
| 20260504223326 | 78 | 170 | 2.0 | 4.0 | 0.00 | 0.00 | 0.00 | 4 | 1013.1 |
| 20260504223026 | 79 | 261 | 2.0 | 4.0 | 0.00 | 0.00 | 0.00 | 4 | 1013.1 |
| 20260504222726 | 79 | 251 | 2.0 | 4.0 | 0.00 | 0.00 | 0.00 | 4 | 1013.1 |
| 20260504222426 | 80 | 225 | 1.0 | 3.0 | 0.00 | 0.00 | 0.00 | 3 | 1013.0 |
| 20260504222126 | 80 | 0 | 0.0 | 0.0 | 0.00 | 0.00 | 0.00 | 3 | 1013.0 |
| 20260504221526 | 79 | 292 | 0.0 | 2.0 | 0.00 | 0.00 | 0.00 | 4 | 1013.1 |
| 20260504221226 | 78 | 198 | 5.0 | 7.0 | 0.00 | 0.00 | 0.00 | 4 | 1013.1 |
| 20260504220926 | 79 | 215 | 1.0 | 4.0 | 0.00 | 0.00 | 0.00 | 4 | 1013.1 |
| 20260504220626 | 78 | 180 | 2.0 | 5.0 | 0.00 | 0.00 | 0.00 | 4 | 1013.1 |
| 20260504220326 | 78 | 210 | 1.0 | 2.0 | 0.00 | 0.00 | 0.00 | 4 | 1013.2 |
| 20260504215726 | 77 | 253 | 3.0 | 6.0 | 0.00 | 0.00 | 0.00 | 4 | 1013.2 |
| 20260504215426 | 77 | 247 | 3.0 | 6.0 | 0.00 | 0.00 | 0.00 | 4 | 1013.1 |
| 20260504214826 | 76 | 269 | 3.0 | 6.0 | 0.00 | 0.00 | 0.00 | 4 | 1013.1 |
| 20260504214526 | 76 | 184 | 6.0 | 9.0 | 0.00 | 0.00 | 0.00 | 4 | 1013.2 |
| 20260504214226 | 77 | 191 | 3.0 | 4.0 | 0.00 | 0.00 | 0.00 | 4 | 1013.1 |
| 20260504213927 | 77 | 225 | 4.0 | 4.0 | 0.00 | 0.00 | 0.00 | 4 | 1013.1 |
| 20260504213326 | 77 | 0 | 3.0 | 3.0 | 0.00 | 0.00 | 0.00 | 4 | 1013.3 |
| 20260504213026 | 77 | 0 | 3.0 | 3.0 | 0.00 | 0.00 | 0.00 | 4 | 1013.3 |
| 20260504212726 | 77 | 0 | 3.0 | 3.0 | 0.00 | 0.00 | 0.00 | 4 | 1013.3 |
| 20260504212426 | 77 | 0 | 0.0 | 0.0 | 0.00 | 0.00 | 0.00 | 4 | 1013.2 |
| 20260504212126 | 76 | 0 | 0.0 | 0.0 | 0.00 | 0.00 | 0.00 | 4 | 1013.2 |
| 20260504211526 | 75 | 222 | 3.0 | 4.0 | 0.00 | 0.00 | 0.00 | 4 | 1013.2 |
| 20260504211226 | 75 | 0 | 0.0 | 0.0 | 0.00 | 0.00 | 0.00 | 4 | 1013.3 |
| 20260504210926 | 76 | 0 | 0.0 | 0.0 | 0.00 | 0.00 | 0.00 | 4 | 1013.3 |
| 20260504210626 | 76 | 180 | 2.0 | 4.0 | 0.00 | 0.00 | 0.00 | 4 | 1013.4 |
| 20260504210326 | 76 | 168 | 1.0 | 3.0 | 0.00 | 0.00 | 0.00 | 4 | 1013.5 |
| 20260504205727 | 76 | 209 | 2.0 | 5.0 | 0.00 | 0.00 | 0.00 | 4 | 1013.4 |
| 20260504205427 | 76 | 212 | 3.0 | 6.0 | 0.00 | 0.00 | 0.00 | 4 | 1013.5 |
| 20260504204827 | 76 | 232 | 4.0 | 8.0 | 0.00 | 0.00 | 0.00 | 4 | 1013.5 |
| 20260504204527 | 75 | 235 | 2.0 | 3.0 | 0.00 | 0.00 | 0.00 | 4 | 1013.5 |
| 20260504204227 | 76 | 0 | 0.0 | 0.0 | 0.00 | 0.00 | 0.00 | 4 | 1013.5 |
| 20260504203927 | 76 | 0 | 0.0 | 0.0 | 0.00 | 0.00 | 0.00 | 4 | 1013.5 |
| 20260504203630 | 77 | 243 | 2.0 | 5.0 | 0.00 | 0.00 | 0.00 | 3 | 1013.5 |
| 20260504203327 | 77 | 202 | 1.0 | 3.0 | 0.00 | 0.00 | 0.00 | 4 | 1013.5 |
| 20260504203027 | 76 | 180 | 1.0 | 4.0 | 0.00 | 0.00 | 0.00 | 4 | 1013.6 |
| 20260504202727 | 76 | 179 | 4.0 | 6.0 | 0.00 | 0.00 | 0.00 | 4 | 1013.7 |
| 20260504202427 | 76 | 114 | 3.0 | 6.0 | 0.00 | 0.00 | 0.00 | 4 | 1013.6 |
| 20260504202127 | 76 | 180 | 0.0 | 2.0 | 0.00 | 0.00 | 0.00 | 4 | 1013.6 |
| 20260504201527 | 77 | 270 | 0.0 | 2.0 | 0.00 | 0.00 | 0.00 | 4 | 1013.5 |
| 20260504201227 | 77 | 306 | 1.0 | 2.0 | 0.00 | 0.00 | 0.00 | 4 | 1013.6 |
| 20260504200927 | 77 | 180 | 2.0 | 6.0 | 0.00 | 0.00 | 0.00 | 4 | 1013.7 |
| 20260504200627 | 77 | 156 | 1.0 | 3.0 | 0.00 | 0.00 | 0.00 | 4 | 1013.7 |
| 20260504200327 | 78 | 233 | 4.0 | 7.0 | 0.00 | 0.00 | 0.00 | 4 | 1013.6 |
| 20260504195727 | 77 | 0 | 0.0 | 0.0 | 0.00 | 0.00 | 0.00 | 4 | 1013.7 |
| 20260504195427 | 77 | 0 | 0.0 | 0.0 | 0.00 | 0.00 | 0.00 | 4 | 1013.8 |
| 20260504194827 | 77 | 195 | 1.0 | 3.0 | 0.00 | 0.00 | 0.00 | 4 | 1013.9 |
| 20260504194527 | 77 | 209 | 2.0 | 3.0 | 0.00 | 0.00 | 0.00 | 4 | 1014.0 |
| 20260504194227 | 77 | 0 | 1.0 | 5.0 | 0.00 | 0.00 | 0.00 | 4 | 1014.1 |
| 20260504193927 | 76 | 199 | 5.0 | 7.0 | 0.00 | 0.00 | 0.00 | 4 | 1014.1 |
| 20260504193627 | 76 | 202 | 1.0 | 4.0 | 0.00 | 0.00 | 0.00 | 4 | 1014.1 |
| 20260504193327 | 77 | 203 | 4.0 | 6.0 | 0.00 | 0.00 | 0.00 | 4 | 1014.1 |
| 20260504193028 | 77 | 0 | 0.0 | 0.0 | 0.00 | 0.00 | 0.00 | 4 | 1014.1 |
| 20260504192727 | 77 | 170 | 1.0 | 3.0 | 0.00 | 0.00 | 0.00 | 4 | 1014.2 |
| 20260504192426 | 75 | 202 | 1.0 | 3.0 | 0.00 | 0.00 | 0.00 | 4 | 1014.4 |
| 20260504192126 | 75 | 225 | 2.0 | 5.0 | 0.00 | 0.00 | 0.00 | 4 | 1014.4 |
| 20260504191526 | 76 | 188 | 3.0 | 6.0 | 0.00 | 0.00 | 0.00 | 4 | 1014.4 |
| 20260504191226 | 77 | 225 | 2.0 | 3.0 | 0.00 | 0.00 | 0.00 | 4 | 1014.4 |
| 20260504190926 | 77 | 0 | 0.0 | 0.0 | 0.00 | 0.00 | 0.00 | 4 | 1014.4 |
| 20260504190626 | 77 | 168 | 1.0 | 3.0 | 0.00 | 0.00 | 0.00 | 4 | 1014.5 |
| 20260504190326 | 77 | 0 | 0.0 | 0.0 | 0.00 | 0.00 | 0.00 | 4 | 1014.5 |
| 20260504185726 | 77 | 201 | 4.0 | 5.0 | 0.00 | 0.00 | 0.00 | 4 | 1014.7 |
| 20260504185426 | 77 | 217 | 3.0 | 5.0 | 0.00 | 0.00 | 0.00 | 4 | 1014.8 |
| 20260504184826 | 76 | 172 | 2.0 | 3.0 | 0.00 | 0.00 | 0.00 | 4 | 1014.9 |
| 20260504184526 | 76 | 157 | 1.0 | 3.0 | 0.00 | 0.00 | 0.00 | 4 | 1015.0 |
| 20260504184226 | 76 | 134 | 3.0 | 6.0 | 0.00 | 0.00 | 0.00 | 4 | 1015.0 |
| 20260504183926 | 77 | 0 | 0.0 | 0.0 | 0.00 | 0.00 | 0.00 | 4 | 1015.0 |
| 20260504183626 | 77 | 0 | 0.0 | 0.0 | 0.00 | 0.00 | 0.00 | 4 | 1014.9 |
| 20260504183326 | 77 | 180 | 1.0 | 4.0 | 0.00 | 0.00 | 0.00 | 4 | 1014.9 |
| 20260504183026 | 77 | 270 | 0.0 | 1.0 | 0.00 | 0.00 | 0.00 | 4 | 1015.1 |
| 20260504182726 | 76 | 188 | 3.0 | 5.0 | 0.00 | 0.00 | 0.00 | 4 | 1015.1 |
| 20260504182426 | 77 | 249 | 3.0 | 5.0 | 0.00 | 0.00 | 0.00 | 4 | 1015.0 |
| 20260504182126 | 77 | 225 | 2.0 | 3.0 | 0.00 | 0.00 | 0.00 | 4 | 1015.0 |
| 20260504181526 | 76 | 292 | 1.0 | 2.0 | 0.00 | 0.00 | 0.00 | 4 | 1015.2 |
| 20260504181226 | 77 | 225 | 0.0 | 2.0 | 0.00 | 0.00 | 0.00 | 4 | 1015.2 |
| 20260504180926 | 77 | 202 | 1.0 | 3.0 | 0.00 | 0.00 | 0.00 | 4 | 1015.1 |